createdAt,value
2022-09-24T00:02:28.938Z,5.40
2022-09-24T00:04:57.702Z,5.88
2022-09-24T00:07:26.215Z,5.47
2022-09-24T00:09:54.885Z,5.22
2022-09-24T00:12:23.419Z,5.35
2022-09-24T00:14:51.996Z,5.57
2022-09-24T00:17:20.707Z,5.63
2022-09-24T00:19:50.628Z,5.88
2022-09-24T00:22:19.271Z,5.13
2022-09-24T00:25:05.597Z,4.88
2022-09-24T00:27:34.214Z,5.10
2022-09-24T00:30:02.822Z,5.13
2022-09-24T00:32:31.366Z,5.00
2022-09-24T00:35:01.258Z,5.68
2022-09-24T00:37:29.840Z,5.18
2022-09-24T00:39:58.366Z,5.10
2022-09-24T00:42:29.581Z,5.32
2022-09-24T00:44:58.247Z,5.95
2022-09-24T00:47:28.940Z,5.43
2022-09-24T00:50:00.708Z,5.40
2022-09-24T00:52:30.639Z,5.05
2022-09-24T00:54:59.291Z,5.05
2022-09-24T00:57:28.408Z,4.93
2022-09-24T00:59:57.011Z,4.90
2022-09-24T01:02:25.734Z,5.10
2022-09-24T01:04:56.578Z,4.68
2022-09-24T01:07:26.021Z,4.80
2022-09-24T01:09:56.117Z,4.72
2022-09-24T01:12:28.354Z,4.75
2022-09-24T01:15:02.445Z,4.53
2022-09-24T01:17:33.729Z,4.75
2022-09-24T01:20:25.066Z,4.65
2022-09-24T01:23:01.044Z,4.75
2022-09-24T01:25:36.975Z,4.93
2022-09-24T01:28:13.119Z,4.38
2022-09-24T01:30:44.078Z,4.25
2022-09-24T01:33:14.949Z,4.55
2022-09-24T01:35:45.018Z,4.63
2022-09-24T01:38:16.209Z,4.35
2022-09-24T01:40:45.663Z,4.90
2022-09-24T01:43:14.600Z,4.35
2022-09-24T01:45:44.960Z,3.97
2022-09-24T01:48:13.754Z,4.20
2022-09-24T01:50:44.487Z,4.22
2022-09-24T01:53:16.111Z,4.57
2022-09-24T01:58:16.910Z,4.40
2022-09-24T02:00:49.510Z,4.20
2022-09-24T02:03:21.206Z,3.50
2022-09-24T02:08:20.721Z,3.75
2022-09-24T02:10:53.377Z,3.97
2022-09-24T02:13:24.672Z,3.75
2022-09-24T02:15:58.038Z,3.88
2022-09-24T02:18:30.184Z,3.78
2022-09-24T02:21:01.047Z,3.97
2022-09-24T02:23:30.314Z,3.78
2022-09-24T02:26:02.851Z,4.20
2022-09-24T02:28:32.425Z,4.00
2022-09-24T02:31:04.561Z,3.72
2022-09-24T02:33:51.567Z,3.75
2022-09-24T02:36:20.239Z,3.65
2022-09-24T02:38:48.768Z,3.42
2022-09-24T02:41:17.385Z,4.05
2022-09-24T02:43:46.090Z,4.10
2022-09-24T02:46:16.146Z,3.90
2022-09-24T02:48:44.756Z,3.65
2022-09-24T02:51:13.312Z,4.40
2022-09-24T02:53:41.904Z,3.90
2022-09-24T02:56:11.261Z,3.65
2022-09-24T02:58:39.797Z,3.63
2022-09-24T03:01:08.556Z,4.10
2022-09-24T03:03:38.514Z,4.05
2022-09-24T03:06:07.298Z,3.33
2022-09-24T03:08:35.868Z,3.85
2022-09-24T03:11:04.447Z,3.72
2022-09-24T03:13:32.940Z,3.88
2022-09-24T03:16:01.581Z,4.07
2022-09-24T03:18:30.146Z,3.38
2022-09-24T03:21:00.826Z,3.78
2022-09-24T03:23:29.552Z,3.90
2022-09-24T03:25:59.008Z,3.88
2022-09-24T03:28:27.752Z,3.67
2022-09-24T03:31:01.433Z,4.07
2022-09-24T03:33:31.081Z,3.78
2022-09-24T03:36:02.089Z,4.20
2022-09-24T03:38:31.393Z,4.03
2022-09-24T03:41:00.361Z,3.85
2022-09-24T03:43:29.212Z,3.70
2022-09-24T03:45:57.767Z,4.05
2022-09-24T03:48:26.824Z,3.78
2022-09-24T03:50:55.799Z,3.75
2022-09-24T03:53:25.694Z,3.50
2022-09-24T03:55:58.079Z,4.07
2022-09-24T03:58:26.742Z,4.30
2022-09-24T04:00:55.294Z,3.78
2022-09-24T04:03:24.258Z,4.25
2022-09-24T04:05:53.093Z,4.00
2022-09-24T04:08:21.768Z,3.55
2022-09-24T04:10:52.060Z,4.13
2022-09-24T04:13:21.253Z,4.20
2022-09-24T04:15:50.338Z,3.53
2022-09-24T04:18:19.700Z,3.83
2022-09-24T04:20:48.208Z,3.47
2022-09-24T04:23:17.234Z,4.13
2022-09-24T04:25:45.903Z,4.28
2022-09-24T04:28:15.877Z,3.83
2022-09-24T04:30:44.476Z,3.70
2022-09-24T04:33:13.428Z,3.55
2022-09-24T04:35:41.987Z,3.58
2022-09-24T04:38:11.290Z,3.90
2022-09-24T04:40:40.150Z,3.65
2022-09-24T04:43:08.986Z,3.60
2022-09-24T04:45:38.964Z,3.85
2022-09-24T04:48:07.687Z,3.78
2022-09-24T04:50:36.271Z,3.40
2022-09-24T04:53:04.882Z,3.40
2022-09-24T04:55:33.405Z,3.78
2022-09-24T04:58:02.062Z,3.03
2022-09-24T05:00:33.499Z,3.60
2022-09-24T05:03:04.843Z,3.70
2022-09-24T05:05:33.623Z,3.75
2022-09-24T05:08:02.433Z,3.45
2022-09-24T05:10:33.237Z,3.42
2022-09-24T05:13:02.309Z,4.00
2022-09-24T05:15:30.999Z,3.58
2022-09-24T05:17:59.715Z,3.08
2022-09-24T05:20:29.690Z,3.33
2022-09-24T05:22:58.239Z,3.33
2022-09-24T05:25:26.760Z,3.70
2022-09-24T05:27:55.227Z,3.35
2022-09-24T05:30:24.420Z,3.55
2022-09-24T05:32:53.146Z,3.55
2022-09-24T05:35:22.816Z,3.30
2022-09-24T05:37:53.715Z,3.42
2022-09-24T05:40:41.027Z,3.55
2022-09-24T05:43:10.052Z,3.67
2022-09-24T05:45:38.639Z,3.90
2022-09-24T05:48:07.411Z,3.40
2022-09-24T05:50:35.998Z,3.17
2022-09-24T05:53:06.891Z,3.15
2022-09-24T05:55:35.678Z,3.75
2022-09-24T05:58:05.098Z,3.70
2022-09-24T06:00:33.670Z,3.22
2022-09-24T06:03:06.725Z,4.13
2022-09-24T06:05:36.001Z,3.63
2022-09-24T06:08:06.187Z,3.78
2022-09-24T06:10:34.754Z,3.63
2022-09-24T06:13:04.033Z,3.72
2022-09-24T06:15:32.944Z,3.75
2022-09-24T06:18:01.480Z,3.40
2022-09-24T06:20:29.997Z,3.65
2022-09-24T06:22:58.943Z,3.80
2022-09-24T06:25:29.067Z,3.50
2022-09-24T06:28:00.725Z,3.45
2022-09-24T06:30:30.067Z,3.28
2022-09-24T06:33:03.247Z,3.60
2022-09-24T06:35:31.836Z,3.50
2022-09-24T06:38:00.396Z,3.78
2022-09-24T06:40:35.662Z,3.25
2022-09-24T06:43:05.375Z,3.50
2022-09-24T06:45:34.171Z,3.15
2022-09-24T06:48:03.658Z,3.47
2022-09-24T06:50:34.526Z,3.30
2022-09-24T06:53:06.559Z,3.40
2022-09-24T06:55:37.001Z,3.50
2022-09-24T06:58:06.504Z,3.58
2022-09-24T07:00:35.231Z,3.70
2022-09-24T07:03:03.856Z,3.70
2022-09-24T07:05:32.702Z,3.72
2022-09-24T07:08:01.336Z,3.40
2022-09-24T07:10:29.858Z,3.60
2022-09-24T07:12:59.740Z,4.18
2022-09-24T07:15:28.309Z,3.55
2022-09-24T07:17:57.332Z,3.55
2022-09-24T07:20:28.212Z,3.53
2022-09-24T07:22:57.022Z,4.03
2022-09-24T07:25:25.655Z,4.10
2022-09-24T07:27:54.205Z,3.65
2022-09-24T07:30:24.190Z,3.42
2022-09-24T07:32:56.478Z,4.00
2022-09-24T07:35:25.465Z,3.50
2022-09-24T07:38:00.774Z,4.00
2022-09-24T07:40:29.974Z,3.85
2022-09-24T07:42:58.559Z,4.30
2022-09-24T07:45:29.881Z,4.13
2022-09-24T07:47:59.806Z,4.10
2022-09-24T07:50:28.600Z,3.90
2022-09-24T07:52:57.481Z,3.40
2022-09-24T07:55:26.145Z,3.80
2022-09-24T07:57:57.504Z,3.67
2022-09-24T08:00:27.715Z,3.60
2022-09-24T08:02:56.558Z,3.83
2022-09-24T08:05:25.475Z,3.67
2022-09-24T08:07:55.871Z,4.05
2022-09-24T08:10:24.482Z,3.88
2022-09-24T08:12:52.699Z,4.55
2022-09-24T08:15:22.767Z,4.15
2022-09-24T08:17:53.134Z,4.53
2022-09-24T08:20:23.508Z,4.40
2022-09-24T08:22:51.758Z,4.20
2022-09-24T08:25:19.987Z,4.25
2022-09-24T08:27:48.276Z,3.78
2022-09-24T08:30:16.751Z,4.05
2022-09-24T08:32:48.301Z,4.30
2022-09-24T08:35:18.744Z,3.95
2022-09-24T08:37:47.001Z,4.40
2022-09-24T08:40:20.223Z,3.70
2022-09-24T08:42:54.130Z,4.07
2022-09-24T08:45:39.926Z,3.83
2022-09-24T08:48:14.871Z,4.13
2022-09-24T08:50:49.549Z,4.43
2022-09-24T08:53:23.674Z,3.72
2022-09-24T08:55:55.342Z,3.80
2022-09-24T09:01:04.562Z,4.00
2022-09-24T09:03:37.669Z,4.05
2022-09-24T09:06:14.189Z,3.95
2022-09-24T09:09:06.442Z,6.90
2022-09-24T09:11:38.068Z,15.48
2022-09-24T09:14:12.065Z,26.48
2022-09-24T09:16:47.662Z,14.93
2022-09-24T09:19:18.815Z,8.80
2022-09-24T09:21:54.453Z,8.23
2022-09-24T09:24:27.780Z,7.95
2022-09-24T09:26:58.358Z,7.22
2022-09-24T09:29:28.870Z,6.60
2022-09-24T09:32:07.045Z,6.32
2022-09-24T09:34:50.649Z,6.55
2022-09-24T09:37:28.161Z,5.60
2022-09-24T09:40:10.010Z,5.20
2022-09-24T09:42:40.467Z,5.40
2022-09-24T09:45:27.964Z,5.55
2022-09-24T09:47:58.246Z,5.15
2022-09-24T09:50:29.278Z,5.38
2022-09-24T09:52:59.028Z,5.53
2022-09-24T09:55:31.255Z,5.32
2022-09-24T09:58:12.094Z,5.40
2022-09-24T10:00:40.404Z,5.20
2022-09-24T10:03:25.117Z,5.20
2022-09-24T10:05:56.147Z,5.10
2022-09-24T10:08:26.696Z,5.05
2022-09-24T10:10:58.715Z,5.22
2022-09-24T10:13:28.599Z,4.75
2022-09-24T10:15:58.897Z,4.47
2022-09-24T10:18:32.808Z,4.70
2022-09-24T10:21:04.219Z,4.75
2022-09-24T10:23:38.936Z,4.78
2022-09-24T10:26:08.985Z,4.75
2022-09-24T10:29:05.897Z,6.35
2022-09-24T10:31:38.502Z,5.00
2022-09-24T10:34:23.531Z,4.88
2022-09-24T10:36:52.715Z,5.35
2022-09-24T10:39:23.042Z,5.20
2022-09-24T10:41:53.048Z,5.30
2022-09-24T10:44:23.170Z,5.68
2022-09-24T10:47:01.773Z,5.70
2022-09-24T10:49:42.201Z,5.97
2022-09-24T10:52:26.607Z,5.63
2022-09-24T10:55:03.791Z,5.57
2022-09-24T10:57:39.656Z,5.78
2022-09-24T11:00:15.520Z,5.65
2022-09-24T11:03:01.937Z,5.60
2022-09-24T11:05:34.661Z,5.22
2022-09-24T11:08:11.124Z,5.75
2022-09-24T11:11:04.784Z,5.43
2022-09-24T11:13:41.579Z,4.90
2022-09-24T11:16:55.012Z,5.50
2022-09-24T11:19:39.568Z,4.95
2022-09-24T11:22:14.021Z,4.88
2022-09-24T11:25:13.979Z,5.50
2022-09-24T11:28:02.080Z,6.10
2022-09-24T11:30:39.267Z,5.20
2022-09-24T11:33:26.289Z,5.25
2022-09-24T11:36:28.015Z,6.05
2022-09-24T11:39:10.478Z,6.07
2022-09-24T11:41:49.821Z,9.27
2022-09-24T11:44:47.813Z,7.13
2022-09-24T11:47:32.198Z,6.63
2022-09-24T11:50:25.540Z,6.50
2022-09-24T11:52:58.566Z,6.47
2022-09-24T11:55:34.230Z,6.57
2022-09-24T11:58:12.196Z,6.20
2022-09-24T12:00:47.350Z,6.07
2022-09-24T12:03:25.935Z,6.03
2022-09-24T12:06:01.285Z,6.30
2022-09-24T12:08:36.399Z,5.97
2022-09-24T12:11:10.527Z,6.07
2022-09-24T12:13:42.420Z,6.57
2022-09-24T12:16:15.252Z,5.88
2022-09-24T12:18:51.556Z,5.97
2022-09-24T12:21:23.471Z,6.35
2022-09-24T12:24:02.184Z,6.28
2022-09-24T12:26:32.243Z,6.45
2022-09-24T12:29:20.972Z,6.22
2022-09-24T12:32:13.348Z,6.25
2022-09-24T12:34:51.974Z,6.97
2022-09-24T12:37:24.974Z,7.47
2022-09-24T12:40:01.432Z,7.15
2022-09-24T12:42:35.362Z,6.95
2022-09-24T12:45:05.704Z,6.80
2022-09-24T12:47:39.065Z,7.10
2022-09-24T12:50:21.957Z,7.18
2022-09-24T12:52:50.370Z,6.70
2022-09-24T12:55:24.148Z,6.80
2022-09-24T12:57:55.099Z,7.20
2022-09-24T13:00:41.129Z,7.20
2022-09-24T13:03:33.991Z,6.63
2022-09-24T13:06:04.586Z,7.20
2022-09-24T13:08:40.729Z,7.00
2022-09-24T13:11:26.735Z,6.35
2022-09-24T13:14:18.322Z,6.97
2022-09-24T13:16:50.461Z,6.50
2022-09-24T13:19:31.530Z,6.95
2022-09-24T13:22:02.233Z,6.57
2022-09-24T13:24:36.201Z,6.40
2022-09-24T13:27:21.958Z,7.15
2022-09-24T13:30:03.661Z,7.22
2022-09-24T13:32:37.879Z,7.28
2022-09-24T13:35:21.017Z,6.53
2022-09-24T13:37:57.328Z,7.38
2022-09-24T13:40:29.368Z,6.97
2022-09-24T13:43:04.209Z,6.20
2022-09-24T13:45:35.069Z,6.50
2022-09-24T13:48:06.014Z,6.55
2022-09-24T13:50:37.618Z,6.40
2022-09-24T13:55:40.794Z,6.57
2022-09-24T13:58:28.107Z,6.25
2022-09-24T14:00:58.357Z,6.55
2022-09-24T14:03:29.764Z,5.82
2022-09-24T14:05:58.236Z,5.88
2022-09-24T14:08:30.043Z,5.97
2022-09-24T14:11:09.760Z,6.15
2022-09-24T14:13:45.996Z,5.82
2022-09-24T14:16:17.988Z,5.97
2022-09-24T14:18:46.542Z,6.40
2022-09-24T14:21:21.144Z,6.15
2022-09-24T14:23:56.890Z,6.30
2022-09-24T14:26:30.905Z,5.60
2022-09-24T14:29:01.181Z,5.97
2022-09-24T14:31:29.800Z,6.20
2022-09-24T14:34:00.301Z,5.78
2022-09-24T14:36:29.381Z,6.10
2022-09-24T14:39:03.354Z,5.68
2022-09-24T14:41:35.350Z,5.68
2022-09-24T14:44:08.911Z,5.70
2022-09-24T14:46:49.576Z,5.82
2022-09-24T14:49:21.491Z,6.13
2022-09-24T14:51:55.019Z,5.30
2022-09-24T14:54:33.448Z,6.13
2022-09-24T14:57:12.518Z,5.53
2022-09-24T14:59:42.891Z,6.47
2022-09-24T15:02:19.183Z,6.47
2022-09-24T15:04:49.349Z,6.10
2022-09-24T15:07:19.998Z,7.35
2022-09-24T15:09:53.658Z,6.53
2022-09-24T15:12:25.218Z,6.40
2022-09-24T15:14:59.351Z,6.43
2022-09-24T15:17:32.220Z,7.00
2022-09-24T15:20:00.528Z,6.63
2022-09-24T15:22:30.082Z,6.88
2022-09-24T15:25:02.309Z,6.78
2022-09-24T15:27:32.625Z,6.05
2022-09-24T15:30:04.845Z,5.93
2022-09-24T15:32:35.167Z,5.53
2022-09-24T15:35:08.625Z,6.18
2022-09-24T15:37:40.262Z,6.45
2022-09-24T15:40:17.341Z,5.70
2022-09-24T15:42:45.588Z,5.53
2022-09-24T15:45:18.272Z,5.85
2022-09-24T15:47:46.996Z,6.30
2022-09-24T15:50:15.500Z,6.03
2022-09-24T15:52:49.075Z,6.65
2022-09-24T15:55:21.034Z,6.45
2022-09-24T15:57:49.393Z,5.60
2022-09-24T16:00:19.937Z,6.00
2022-09-24T16:02:52.326Z,6.03
2022-09-24T16:05:21.308Z,7.18
2022-09-24T16:07:49.616Z,7.40
2022-09-24T16:10:19.508Z,8.13
2022-09-24T16:12:47.681Z,8.65
2022-09-24T16:15:17.197Z,7.65
2022-09-24T16:17:45.745Z,7.45
2022-09-24T16:20:13.961Z,7.68
2022-09-24T16:22:42.167Z,6.80
2022-09-24T16:25:10.700Z,7.63
2022-09-24T16:27:40.925Z,7.57
2022-09-24T16:30:09.946Z,7.78
2022-09-24T16:32:38.111Z,7.72
2022-09-24T16:35:09.702Z,8.07
2022-09-24T16:37:38.040Z,9.40
2022-09-24T16:40:07.230Z,35.53
2022-09-24T16:42:35.980Z,54.03
2022-09-24T16:45:07.164Z,84.13
2022-09-24T16:47:35.538Z,116.95
2022-09-24T16:50:03.819Z,128.50
2022-09-24T16:52:32.834Z,117.55
2022-09-24T16:55:01.097Z,163.77
2022-09-24T16:57:29.256Z,133.50
2022-09-24T16:59:57.739Z,106.63
2022-09-24T17:02:27.461Z,82.85
2022-09-24T17:04:59.431Z,91.10
2022-09-24T17:07:31.666Z,116.47
2022-09-24T17:10:15.505Z,139.82
2022-09-24T17:12:45.663Z,125.65
2022-09-24T17:15:14.938Z,101.72
2022-09-24T17:17:49.967Z,114.75
2022-09-24T17:20:19.751Z,118.30
2022-09-24T17:22:49.800Z,108.57
2022-09-24T17:25:18.583Z,90.03
2022-09-24T17:27:46.877Z,73.93
2022-09-24T17:30:16.433Z,66.03
2022-09-24T17:32:46.316Z,61.22
2022-09-24T17:35:14.835Z,58.35
2022-09-24T17:37:44.253Z,57.85
2022-09-24T17:40:12.888Z,55.58
2022-09-24T17:42:45.867Z,54.13
2022-09-24T17:45:14.491Z,57.58
2022-09-24T17:47:57.558Z,58.33
2022-09-24T17:50:28.660Z,44.35
2022-09-24T17:52:58.606Z,40.22
2022-09-24T17:55:27.590Z,33.70
2022-09-24T17:57:56.042Z,31.70
2022-09-24T18:00:24.593Z,29.50
2022-09-24T18:02:55.875Z,27.52
2022-09-24T18:05:24.157Z,27.38
2022-09-24T18:07:53.889Z,28.08
2022-09-24T18:10:22.399Z,27.13
2022-09-24T18:12:50.882Z,25.80
2022-09-24T18:15:19.305Z,27.20
2022-09-24T18:17:47.590Z,25.92
2022-09-24T18:20:16.853Z,25.05
2022-09-24T18:22:45.022Z,25.55
2022-09-24T18:25:14.993Z,24.58
2022-09-24T18:27:44.052Z,23.65
2022-09-24T18:30:13.369Z,22.02
2022-09-24T18:32:45.616Z,21.90
2022-09-24T18:35:17.145Z,21.23
2022-09-24T18:37:45.417Z,22.73
2022-09-24T18:40:15.134Z,21.70
2022-09-24T18:42:43.457Z,21.25
2022-09-24T18:45:12.691Z,20.95
2022-09-24T18:47:40.931Z,19.65
2022-09-24T18:50:10.271Z,19.45
2022-09-24T18:52:38.492Z,18.98
2022-09-24T18:55:07.749Z,18.88
2022-09-24T18:57:38.416Z,19.20
2022-09-24T19:00:28.407Z,18.60
2022-09-24T19:02:57.013Z,18.73
2022-09-24T19:05:25.464Z,17.45
2022-09-24T19:07:54.162Z,18.02
2022-09-24T19:10:22.702Z,17.42
2022-09-24T19:12:55.684Z,16.70
2022-09-24T19:15:25.348Z,16.48
2022-09-24T19:17:54.131Z,16.83
2022-09-24T19:20:22.770Z,19.02
2022-09-24T19:22:59.947Z,17.98
2022-09-24T19:25:28.705Z,16.98
2022-09-24T19:27:59.357Z,17.20
2022-09-24T19:30:28.680Z,17.58
2022-09-24T19:32:57.733Z,17.08
2022-09-24T19:35:26.901Z,17.83
2022-09-24T19:37:55.096Z,17.83
2022-09-24T19:40:23.570Z,18.55
2022-09-24T19:42:51.989Z,18.95
2022-09-24T19:45:21.899Z,18.63
2022-09-24T19:47:52.056Z,18.10
2022-09-24T19:50:20.479Z,17.88
2022-09-24T19:52:48.763Z,17.15
2022-09-24T19:55:17.169Z,17.50
2022-09-24T19:57:45.421Z,28.75
2022-09-24T20:00:14.712Z,50.92
2022-09-24T20:02:44.542Z,87.55
2022-09-24T20:05:12.896Z,96.38
2022-09-24T20:07:42.086Z,146.48
2022-09-24T20:10:11.300Z,124.85
2022-09-24T20:12:42.792Z,103.30
2022-09-24T20:17:40.151Z,76.47
2022-09-24T20:20:10.465Z,74.57
2022-09-24T20:22:38.959Z,77.90
2022-09-24T20:25:08.118Z,141.80
2022-09-24T20:27:55.307Z,137.23
2022-09-24T20:30:23.910Z,156.25
2022-09-24T20:32:52.394Z,142.88
2022-09-24T20:35:21.986Z,129.27
2022-09-24T20:37:50.333Z,107.30
2022-09-24T20:40:18.750Z,94.13
2022-09-24T20:42:47.065Z,133.68
2022-09-24T20:45:16.112Z,125.57
2022-09-24T20:47:44.531Z,137.50
2022-09-24T20:50:12.679Z,134.20
2022-09-24T20:52:42.324Z,130.05
2022-09-24T20:55:12.542Z,153.35
2022-09-24T20:57:42.412Z,131.95
2022-09-24T21:00:14.069Z,111.95
2022-09-24T21:05:11.108Z,92.70
2022-09-24T21:07:42.707Z,119.75
2022-09-24T21:12:40.590Z,176.25
2022-09-24T21:15:11.382Z,240.63
2022-09-24T21:17:39.691Z,203.47
2022-09-24T21:20:10.144Z,148.73
2022-09-24T21:22:38.709Z,123.95
2022-09-24T21:25:09.475Z,125.57
2022-09-24T21:27:37.937Z,104.57
2022-09-24T21:30:07.435Z,99.05
2022-09-24T21:32:35.763Z,99.78
2022-09-24T21:35:04.130Z,86.82
2022-09-24T21:37:34.049Z,71.20
2022-09-24T21:40:02.697Z,63.75
2022-09-24T21:42:34.508Z,67.63
2022-09-24T21:45:02.694Z,62.58
2022-09-24T21:47:30.868Z,60.63
2022-09-24T21:49:59.374Z,56.15
2022-09-24T21:52:30.980Z,52.70
2022-09-24T21:57:27.409Z,47.13
2022-09-24T22:00:09.941Z,44.75
2022-09-24T22:02:43.179Z,41.58
2022-09-24T22:05:11.918Z,40.20
2022-09-24T22:07:40.769Z,38.45
2022-09-24T22:10:10.330Z,33.75
2022-09-24T22:12:39.072Z,31.95
2022-09-24T22:15:09.751Z,30.98
2022-09-24T22:17:38.008Z,28.33
2022-09-24T22:20:07.473Z,26.85
2022-09-24T22:22:35.724Z,25.75
2022-09-24T22:25:03.925Z,22.75
2022-09-24T22:27:32.615Z,20.17
2022-09-24T22:30:00.828Z,20.30
2022-09-24T22:32:31.341Z,17.85
2022-09-24T22:35:17.406Z,18.95
2022-09-24T22:37:46.482Z,17.30
2022-09-24T22:40:15.337Z,15.38
2022-09-24T22:42:43.754Z,15.60
2022-09-24T22:45:13.203Z,14.60
2022-09-24T22:47:42.866Z,13.57
2022-09-24T22:50:11.431Z,13.52
2022-09-24T22:52:39.619Z,13.45
2022-09-24T22:55:08.649Z,13.05
2022-09-24T22:57:36.817Z,12.38
2022-09-24T23:00:06.765Z,11.98
2022-09-24T23:02:35.605Z,11.52
2022-09-24T23:05:06.314Z,11.70
2022-09-24T23:07:34.674Z,11.25
2022-09-24T23:10:02.970Z,11.20
2022-09-24T23:12:32.870Z,11.30
2022-09-24T23:15:01.358Z,10.60
2022-09-24T23:17:29.741Z,10.75
2022-09-24T23:19:57.936Z,10.95
2022-09-24T23:22:27.558Z,11.00
2022-09-24T23:24:56.521Z,10.02
2022-09-24T23:27:25.198Z,9.70
2022-09-24T23:29:54.102Z,10.07
2022-09-24T23:32:22.319Z,10.43
2022-09-24T23:34:50.521Z,9.73
2022-09-24T23:37:18.769Z,9.60
2022-09-24T23:39:48.352Z,9.30
2022-09-24T23:42:16.549Z,9.85
2022-09-24T23:44:45.417Z,9.35
2022-09-24T23:47:14.159Z,9.98
2022-09-24T23:49:42.385Z,9.60
2022-09-24T23:52:11.012Z,9.35
2022-09-24T23:54:40.383Z,8.77
2022-09-24T23:57:11.420Z,9.00
2022-09-24T23:59:39.660Z,8.40
